Weather observations for the past three days for
Gilmer County Airport
Metric (Imperial)
Date Time (edt) Wind (kph) Vis. (km) Weather Sky Cond. Temperature (ºC) Relative Humidity Wind Chill (°C) Heat Index (°C) Pressure Precipitation (cm)
Air Dwpt 6 hour altimeter (cm) sea level (mb) 1 hr 3 hr 6 hr
Max. Min.
10 06:35 Vrbl 7 0.24 Light Rain Fog OVC002 14 14 100% 76.25 0.0
10 06:15 Calm 0.24 Fog OVC001 14 14 100% 76.23 0.0
10 05:55 Vrbl 6 0.24 Fog OVC001 14 14 100% 76.23 0.0
10 05:35 Calm 0.24 Fog OVC002 14 14 100% 76.23 0.0
10 05:15 Calm 0.24 Light Rain Fog OVC002 14 14 100% 76.2 0.0
10 04:55 N 9 0.40 Drizzle Fog OVC002 14 14 100% 76.2 0.0
10 04:35 N 6 0.40 Drizzle Fog OVC003 14 14 100% 76.17 0.0
10 04:15 Calm 0.80 Light Drizzle Fog OVC003 13 13 100% 76.15 0.0
10 03:55 Calm 0.40 Drizzle Fog OVC003 13 13 100% 76.15 0.0
10 03:35 Calm 1.21 Light Drizzle Fog/Mist OVC004 13 13 100% 76.15 0.0
10 03:15 Calm 3.22 Fog/Mist OVC003 13 13 100% 76.12 0.0
10 02:55 NE 7 0.80 Light Drizzle Fog/Mist OVC003 13 13 100% 76.12 0.0
10 02:35 Calm 1.61 Fog/Mist OVC003 13 13 100% 76.15 0.0
10 02:15 Calm 1.61 Light Drizzle Fog/Mist SCT003 BKN023 BKN035 14 14 100% 76.12 0.0
10 01:55 Calm 2.01 Fog/Mist FEW003 SCT025 BKN030 14 14 100% 76.15 0.0
10 01:35 Calm 3.22 Fog/Mist FEW029 SCT036 15 15 100% 76.15 0.0
10 01:15 Calm 12.87 Partly Cloudy FEW028 SCT034 SCT045 15 15 100% 76.17 0.0
10 00:55 Calm 9.66 Fog/Mist BKN029 OVC036 15 15 100% 76.17 0.0
10 00:35 Calm 14.48 Overcast OVC034 16 16 100% 76.17 0.0
10 00:15 Calm 14.48 Overcast OVC034 16 16 100% 76.2 0.0
09 23:55 Calm 12.87 Mostly Cloudy BKN034 15 15 100% 76.2 0.0
09 23:35 Calm 14.48 Partly Cloudy SCT032 15 15 100% 76.15 0.0
09 23:15 Calm 2.82 Fog/Mist CLR 15 15 100% 76.15 0.0
09 22:55 Calm 14.48 Fair CLR 15 15 100% 76.15 0.0
09 22:35 Calm 12.87 Fair CLR 15 15 100% 76.12 0.0
09 22:15 N 7 11.27 Fair CLR 16 16 100% 76.1 0.0
09 21:55 N 6 14.48 Fair CLR 16 16 100% 76.07 0.0
09 21:35 Calm 16.09 Fair CLR 16 16 100% 76.07 0.0
09 21:15 Calm 16.09 Fair CLR 17 17 100% 76.07 0.0
09 20:55 Calm 16.09 Fair CLR 17 17 100% 76.05 0.0
09 20:35 Calm 16.09 Fair CLR 18 18 100% 76.02 0.0
09 20:15 Calm 16.09 Fair CLR 18 18 100% 76.02 0.0
09 19:55 Calm 16.09 Fair CLR 19 18 94% 76 0.0
09 19:35 Calm 16.09 Fair CLR 20 17 83% 76 0.0
09 19:15 Calm 16.09 Fair CLR 21 17 78% 75.97 0.0
09 18:55 Calm 16.09 Fair CLR 20 17 83% 75.97 0.0
09 18:35 NW 7 16.09 Fair CLR 21 17 78% 75.97 0.0
09 18:15 Vrbl 6 16.09 Fair CLR 21 17 78% 75.97 0.0
09 17:55 Vrbl 7 16.09 Fair CLR 21 16 73% 75.95 0.0
09 17:35 Vrbl 9 16.09 Fair CLR 21 16 73% 75.97 0.0
09 17:15 Vrbl 6 16.09 Fair CLR 21 16 73% 75.95 0.0
09 16:55 Vrbl 7 16.09 Fair CLR 22 16 69% 75.95 0.0
09 16:35 Vrbl 7 16.09 Fair CLR 21 16 73% 75.95 0.0
09 16:15 Vrbl 9 16.09 Fair CLR 20 16 78% 75.92 0.0
09 15:55 Vrbl 9 16.09 Fair CLR 21 17 78% 75.95 0.0
09 15:35 SW 7 16.09 Fair CLR 21 16 73% 75.95 0.0
09 15:15 SW 6 16.09 Fair CLR 21 16 73% 75.95 0.0
09 14:55 Vrbl 11 16.09 A Few Clouds FEW023 20 16 78% 75.97 0.0
09 14:35 Vrbl 7 16.09 Partly Cloudy SCT023 20 16 78% 75.97 0.0
09 14:15 Vrbl 9 16.09 Fair CLR 20 16 78% 76 0.0
09 13:55 Vrbl 7 16.09 Fair CLR 19 15 78% 76 0.0
09 13:35 Calm 16.09 Fair CLR 19 15 78% 75.97 0.0
09 13:15 Calm 16.09 A Few Clouds FEW018 19 16 83% 76 0.0
09 12:55 SW 9 16.09 Mostly Cloudy FEW014 BKN020 BKN026 18 16 88% 76.02 0.0
09 12:35 Vrbl 7 16.09 Overcast SCT008 BKN020 OVC026 18 17 94% 76.05 0.0
09 12:15 Vrbl 7 11.27 Light Drizzle OVC008 17 17 100% 76.05 0.0
09 11:55 Vrbl 11 12.87 Overcast OVC008 16 16 100% 76.07 0.0
09 11:35 Vrbl 6 16.09 Overcast BKN009 OVC013 16 16 100% 76.07 0.0
09 11:15 Vrbl 7 16.09 Overcast BKN009 OVC012 16 16 100% 76.07 0.0
09 10:55 Vrbl 7 16.09 Mostly Cloudy BKN006 BKN012 BKN022 17 17 100% 76.07 0.0
09 10:35 SW 6 16.09 Mostly Cloudy BKN005 BKN009 BKN026 16 16 100% 76.05 0.0
09 10:15 Calm 3.22 Light Drizzle Fog/Mist BKN003 15 15 100% 76.02 0.0
09 09:55 Calm 1.61 Light Drizzle Fog/Mist OVC002 15 15 100% 76 0.0
09 09:35 Calm 1.21 Light Drizzle Fog/Mist OVC003 15 15 100% 76 0.0
09 09:15 Calm 2.41 Light Drizzle Fog/Mist OVC008 15 15 100% 76 0.0
09 08:55 Calm 16.09 Overcast OVC008 15 15 100% 76 0.0
09 08:35 Calm 16.09 Overcast OVC008 15 15 100% 75.97 0.0
09 08:15 Calm 16.09 Overcast OVC009 14 14 100% 75.97 0.0
09 07:55 Calm 16.09 Overcast OVC013 14 14 100% 75.97 0.0
09 07:35 Calm 16.09 Overcast OVC015 13 13 100% 75.97 0.0
09 07:15 Calm 16.09 Overcast OVC015 13 13 100% 75.97 0.0
09 06:55 Calm 16.09 Overcast OVC015 12 12 100% 75.97 0.0
09 06:35 Calm 16.09 Overcast OVC016 12 12 100% 75.97 0.0
09 06:15 Calm 16.09 Overcast OVC017 12 12 100% 75.97 0.0
09 05:55 Calm 16.09 Overcast OVC019 12 12 100% 75.97 0.0
09 05:35 Calm 16.09 Overcast OVC021 12 12 100% 75.95 0.0
09 05:15 Calm 14.48 Overcast BKN021 BKN027 OVC055 12 12 100% 75.97 0.0
09 04:55 Calm 16.09 Overcast BKN021 OVC027 12 12 100% 76 0.0
09 04:35 Calm 16.09 Overcast OVC020 11 11 100% 75.97 0.0
09 04:15 Calm 16.09 Overcast OVC022 12 12 100% 75.97 0.0
09 03:55 NW 6 14.48 Overcast BKN025 OVC055 12 12 100% 76 0.0
09 03:35 Calm 16.09 Overcast SCT022 OVC027 12 12 100% 75.97 0.0
09 03:15 Calm 14.48 Overcast OVC021 12 12 100% 75.97 0.0
09 02:55 Calm 14.48 Overcast OVC023 11 11 100% 75.97 0.0
09 02:35 Calm 9.66 Fog/Mist BKN021 OVC055 11 11 100% 76.02 0.0
09 02:15 Calm 12.87 Overcast SCT019 OVC055 10 10 100% 76.02 0.0
09 01:55 Calm 16.09 Overcast OVC060 11 11 100% 76.07 0.0
09 01:35 Calm 9.66 Fog/Mist BKN055 11 11 100% 76.07 0.0
09 01:15 Calm 16.09 Mostly Cloudy BKN055 BKN070 11 11 100% 76.07 0.0
09 00:55 Calm 16.09 A Few Clouds FEW050 FEW075 12 12 100% 76.05 0.0
09 00:35 Calm 16.09 Fair CLR 13 13 100% 76.05 0.0
09 00:15 SE 6 16.09 Fair CLR 13 13 100% 76.1 0.0
08 23:55 Calm 16.09 Fair CLR 13 13 100% 76.12 0.0
08 23:35 Calm 16.09 Mostly Cloudy BKN031 13 13 100% 76.12 0.0
08 23:15 Calm 16.09 Overcast OVC034 13 13 100% 76.12 0.0
08 22:55 Calm 16.09 Overcast OVC037 13 13 100% 76.15 0.0
08 22:35 Calm 16.09 Overcast OVC040 13 13 100% 76.15 0.0
08 22:15 Calm 16.09 Overcast OVC040 14 14 100% 76.15 0.0
08 21:55 SE 7 16.09 Mostly Cloudy BKN040 14 14 100% 76.12 0.0
08 21:35 Calm 16.09 A Few Clouds FEW039 15 15 100% 76.12 0.0
08 20:55 Calm 14.48 Fair CLR 15 14 94% 76.12 0.0
08 20:35 Calm 16.09 Fair CLR 15 14 94% 76.1 0.0
08 20:15 Calm 16.09 Fair CLR 16 14 88% 76.1 0.0
08 19:55 Calm 16.09 Fair CLR 16 14 88% 76.1 0.0
08 19:35 Calm 16.09 Fair CLR 17 13 77% 76.1 0.0
08 19:15 Calm 16.09 Fair CLR 17 13 77% 76.1 0.0
08 18:55 Calm 16.09 Fair CLR 18 12 68% 76.1 0.0
08 18:35 Vrbl 6 16.09 Fair CLR 18 12 68% 76.12 0.0
08 18:15 S 9 16.09 Fair CLR 19 11 60% 76.1 0.0
08 17:55 S 11 16.09 Fair CLR 19 11 60% 76.1 0.0
08 17:35 Vrbl 7 G 19 16.09 Fair CLR 20 10 53% 76.1 0.0
08 17:15 Vrbl 7 16.09 Fair CLR 20 10 53% 76.1 0.0
08 16:35 S 11 16.09 Fair CLR 21 9 46% 76.12 0.0
08 15:55 Vrbl 7 16.09 Fair CLR 21 9 46% 76.12 0.0
08 15:35 S 7 16.09 Fair CLR 21 7 40% 76.15 0.0
08 15:15 S 11 16.09 Fair CLR 21 7 40% 76.2 0.0
08 14:55 Calm 16.09 Fair CLR 21 7 40% 76.17 0.0
08 14:35 S 13 16.09 Fair CLR 21 7 40% 76.23 0.0
08 14:15 SW 13 16.09 Fair CLR 21 8 43% 76.23 0.0
08 13:55 Calm 16.09 Fair CLR 21 7 40% 76.25 0.0
08 13:35 Vrbl 7 16.09 Fair CLR 21 8 43% 76.25 0.0
08 13:15 Vrbl 11 16.09 Fair CLR 21 7 40% 76.28 0.0
08 12:55 SW 15 16.09 Fair CLR 20 6 40% 76.3 0.0
08 12:35 SW 7 16.09 Fair CLR 20 7 43% 76.33 0.0
08 12:15 SW 15 16.09 Fair CLR 20 7 43% 76.35 0.0
08 11:55 Vrbl 11 G 22 16.09 Fair CLR 20 7 43% 76.38 0.0
08 11:15 Calm 16.09 Fair CLR 18 9 56% 76.38 0.0
08 10:55 S 9 16.09 Fair CLR 17 9 60% 76.4 0.0
08 10:35 SW 9 16.09 Fair CLR 17 10 64% 76.4 0.0
08 10:15 Vrbl 7 16.09 Fair CLR 16 10 68% 76.4 0.0
08 09:55 Calm 16.09 Fair CLR 15 9 68% 76.4 0.0
08 09:35 Calm 16.09 Fair CLR 14 10 77% 76.4 0.0
08 09:15 NE 7 16.09 Fair CLR 13 11 88% 76.4 0.0
08 08:55 NE 9 16.09 Fair CLR 12 11 94% 76.43 0.0
08 08:35 Vrbl 6 16.09 Fair CLR 11 11 100% 76.43 0.0
08 08:15 Calm 16.09 Fair CLR 10 10 100% 76.4 0.0
08 07:55 Calm 16.09 Fair CLR 9 9 100% 76.35 0.0
08 07:35 Calm 16.09 Fair CLR 8 8 100% 76.33 0.0
08 07:15 Calm 16.09 Fair CLR 7 7 100% 76.3 0.0
08 06:55 Calm 16.09 Fair CLR 8 8 100% 76.28 0.0
08 06:35 Calm 14.48 Fair CLR 7 7 100% 76.25 0.0
08 06:15 N 7 14.48 Fair CLR 7 7 100% 6 76.23 0.0
08 05:55 N 7 9.66 Fog/Mist CLR 7 7 100% 6 76.23 0.0
08 05:35 Calm 6.44 Fog/Mist CLR 8 8 100% 76.23 0.0
08 05:15 Calm 14.48 Fair CLR 8 8 100% 76.2 0.0
08 04:55 NE 6 16.09 Fair CLR 8 8 100% 76.2 0.0
08 04:35 N 7 16.09 Fair CLR 9 9 100% 8 76.2 0.0
08 04:15 N 7 16.09 Fair CLR 9 9 100% 8 76.17 0.0
08 03:55 N 7 16.09 Fair CLR 9 9 100% 8 76.17 0.0
08 03:35 Vrbl 7 14.48 Fair CLR 9 9 100% 8 76.2 0.0
08 03:15 N 7 14.48 Fair CLR 9 9 100% 8 76.2 0.0
08 02:55 N 9 16.09 Fair CLR 9 9 100% 8 76.2 0.0
08 02:35 N 9 16.09 Fair CLR 9 9 100% 8 76.23 0.0
08 02:15 Calm 16.09 Fair CLR 9 9 100% 76.23 0.0
08 01:55 N 7 12.87 Fair CLR 9 9 100% 8 76.23 0.0
08 01:35 N 7 1.61 Fog/Mist CLR 9 9 100% 8 76.23 0.0
08 01:15 Calm 1.61 Fog/Mist CLR 10 10 100% 76.23 0.0
08 00:55 Calm 6.44 Fog/Mist CLR 10 10 100% 76.25 0.0
08 00:35 Calm 4.83 Fog/Mist CLR 10 10 100% 76.23 0.0
08 00:15 NE 7 14.48 Fair CLR 11 11 100% 76.23 0.0
07 23:55 Calm 3.22 Fog/Mist CLR 11 11 100% 76.2 0.0
07 23:35 Calm 4.02 Fog/Mist CLR 11 11 100% 76.2 0.0
07 23:15 Calm 8.05 Fog/Mist CLR 12 12 100% 76.2 0.0
07 22:55 Calm 14.48 Fair CLR 11 11 100% 76.2 0.0
07 22:15 Calm 16.09 Fair CLR 12 12 100% 76.17 0.0
07 21:55 Calm 16.09 Fair CLR 12 12 100% 76.17 0.0
07 21:35 Calm 16.09 Fair CLR 13 13 100% 76.15 0.0
07 21:15 Calm 16.09 Fair CLR 13 13 100% 76.12 0.0
07 20:55 Calm 16.09 Fair CLR 14 14 100% 76.12 0.0
07 20:35 Calm 16.09 Fair CLR 14 14 100% 76.1 0.0
07 20:15 Vrbl 6 16.09 Fair CLR 15 14 94% 76.1 0.0
07 19:55 NW 9 16.09 Fair CLR 16 13 83% 76.07 0.0
07 19:35 Vrbl 7 16.09 Fair CLR 17 14 83% 76.07 0.0
07 19:15 Vrbl 9 16.09 Fair CLR 17 13 77% 76.07 0.0
07 18:55 Vrbl 9 16.09 Fair CLR 17 13 77% 76.07 0.0
07 18:35 Calm 16.09 Partly Cloudy FEW038 SCT044 17 13 77% 76.05 0.0
07 18:15 Vrbl 9 G 19 16.09 Mostly Cloudy SCT037 BKN044 17 13 77% 76.05 0.0
07 17:55 Vrbl 9 16.09 Overcast OVC039 18 13 73% 76.07 0.0
07 17:35 NW 13 G 22 16.09 Mostly Cloudy BKN038 BKN044 17 13 77% 76.05 0.0
07 17:15 Vrbl 9 G 22 16.09 Mostly Cloudy FEW030 BKN035 BKN041 18 14 78% 76.02 0.0
07 16:55 Vrbl 9 G 22 16.09 Mostly Cloudy BKN032 BKN038 18 14 78% 76.02 0.0
07 16:35 NW 13 G 28 16.09 Partly Cloudy SCT029 SCT035 18 14 78% 76.02 0.0
07 16:15 NW 15 G 30 16.09 Partly Cloudy FEW028 SCT035 19 14 73% 76 0.0
07 15:55 NW 20 G 31 16.09 Mostly Cloudy BKN026 BKN035 BKN041 18 14 78% 76 0.0
07 15:35 NW 15 G 24 16.09 Overcast SCT023 BKN027 OVC035 19 16 83% 76 0.0
07 15:15 W 11 G 22 16.09 Partly Cloudy FEW020 SCT027 SCT035 19 16 83% 76 0.0
07 14:55 W 15 16.09 Partly Cloudy FEW020 FEW027 SCT036 20 17 83% 76 0.0
07 14:35 W 13 G 24 16.09 Overcast FEW027 OVC038 19 17 88% 76 0.0
07 14:15 W 13 16.09 Overcast OVC040 19 17 88% 76.02 0.0
07 13:55 Vrbl 7 G 19 16.09 Overcast OVC041 19 17 88% 76.02 0.0
07 13:35 Vrbl 9 16.09 Overcast OVC041 19 17 88% 76.02 0.0
07 13:15 W 9 16.09 Overcast FEW007 OVC039 18 18 100% 76.05 0.0
07 12:55 W 15 16.09 Overcast BKN008 BKN014 OVC036 17 17 100% 76.05 0.0
07 12:35 W 13 16.09 Overcast BKN008 BKN014 OVC036 17 17 100% 76.02 0.0
07 12:15 W 17 16.09 Overcast SCT006 OVC036 18 18 100% 76 0.0
07 11:55 Vrbl 9 16.09 Mostly Cloudy BKN005 BKN037 19 19 100% 75.97 0.0
07 11:35 W 13 16.09 Mostly Cloudy BKN005 BKN037 18 18 100% 75.97 0.0
07 11:15 W 9 16.09 Overcast OVC004 18 18 100% 75.97 0.0
07 10:55 Vrbl 9 16.09 Overcast OVC004 17 17 100% 75.97 0.0
07 10:35 SW 11 16.09 Overcast OVC004 16 16 100% 75.97 0.0
07 10:15 Vrbl 7 16.09 Overcast BKN005 OVC009 17 17 100% 75.97 0.0
07 09:55 Vrbl 6 16.09 Light Rain BKN006 BKN009 OVC013 17 17 100% 75.97 0.0
07 09:15 Vrbl 7 16.09 Overcast BKN004 OVC011 17 17 100% 75.92 0.0
07 08:55 Calm 16.09 Mostly Cloudy BKN004 BKN120 17 17 100% 75.9 0.0 0.18
07 08:35 N 7 9.66 Light Rain Fog/Mist FEW003 FEW120 16 16 100% 75.87 0.0
07 08:15 Calm 2.41 Light Rain Fog/Mist SCT004 SCT075 SCT085 16 16 100% 75.9 0.0
07 07:55 Calm 8.05 Light Rain Fog/Mist FEW004 SCT075 SCT090 16 16 100% 75.95 0.0 0.18
07 07:35 Calm 3.22 Light Rain Fog/Mist FEW003 FEW065 FEW085 16 16 100% 75.92 0.0
07 07:15 Vrbl 11 4.02 Light Rain Fog/Mist FEW004 SCT080 BKN090 16 16 100% 75.9 0.0
07 06:55 NE 11 14.48 Light Rain FEW004 SCT055 OVC090 16 16 100% 75.79 0.0 0.23
Date Time (edt) Wind (kph) Vis. (km) Weather Sky Cond. Air Dwpt Max. Min. Relative Humidity Wind Chill (°C) Heat Index (°C) altimeter (cm) sea level (mb) 1 hr 3 hr 6 hr
6 hour
Temperature (ºC) Pressure Precipitation (cm)